Modoc, Kansas
Current Conditions -  °F | °C
As of 8:54 AM on Monday 24 Nov 2014 (Local Time) from KGCK Reporting Station
Clear Clear  
Wind Chill: 23°   Ceiling: Unl
Heat Index: 32°   Visibility: 10mi
Dew Point: 20°   Wind: 12mph
Humidity: 61%   Direction: 270°W
Pressure: 29.93"   Gusts: NA
Location:  38.4788°N, 101.052°W
Report Text: KGCK 241454Z 27010KT 10SM CLR 00/M07 A2993 RMK AO2 SLP152 T00001067 53019
Loading
Personal Weather Stations






























Interactive Weather Map New forecast layout! Learn more

10-Day Weather Forecast

Advertisements
Track Severe Weather on mobile